sensor_id;sensor_type;location;lat;lon;timestamp;pressure;altitude;pressure_sealevel;temperature;humidity
30554;BME280;17335;50.720;7.452;2023-11-22T00:00:55;100160.41;;;4.64;100.00
30554;BME280;17335;50.720;7.452;2023-11-22T00:03:22;100152.94;;;4.70;100.00
30554;BME280;17335;50.720;7.452;2023-11-22T00:05:50;100163.88;;;4.66;100.00
30554;BME280;17335;50.720;7.452;2023-11-22T00:08:17;100169.44;;;4.45;100.00
30554;BME280;17335;50.720;7.452;2023-11-22T00:10:44;100171.41;;;4.42;100.00
30554;BME280;17335;50.720;7.452;2023-11-22T00:13:11;100176.91;;;4.39;100.00
30554;BME280;17335;50.720;7.452;2023-11-22T00:15:37;100186.31;;;4.28;100.00
30554;BME280;17335;50.720;7.452;2023-11-22T00:18:04;100194.53;;;4.24;100.00
30554;BME280;17335;50.720;7.452;2023-11-22T00:20:31;100184.00;;;4.22;100.00
30554;BME280;17335;50.720;7.452;2023-11-22T00:22:57;100194.63;;;4.22;100.00
30554;BME280;17335;50.720;7.452;2023-11-22T00:25:24;100190.00;;;4.26;100.00
30554;BME280;17335;50.720;7.452;2023-11-22T00:27:51;100191.72;;;4.27;100.00
30554;BME280;17335;50.720;7.452;2023-11-22T00:30:17;100190.69;;;4.29;100.00
30554;BME280;17335;50.720;7.452;2023-11-22T00:32:44;100187.19;;;4.29;100.00
30554;BME280;17335;50.720;7.452;2023-11-22T00:35:10;100191.28;;;4.35;100.00
30554;BME280;17335;50.720;7.452;2023-11-22T00:37:37;100198.50;;;4.32;100.00
30554;BME280;17335;50.720;7.452;2023-11-22T00:40:04;100196.69;;;4.33;100.00
30554;BME280;17335;50.720;7.452;2023-11-22T00:42:40;100194.91;;;4.34;100.00
30554;BME280;17335;50.720;7.452;2023-11-22T00:45:09;100195.75;;;4.34;100.00
30554;BME280;17335;50.720;7.452;2023-11-22T00:47:36;100196.69;;;4.33;100.00
30554;BME280;17335;50.720;7.452;2023-11-22T00:50:03;100195.75;;;4.34;100.00
30554;BME280;17335;50.720;7.452;2023-11-22T00:52:31;100209.66;;;4.39;100.00
30554;BME280;17335;50.720;7.452;2023-11-22T00:54:57;100213.09;;;4.41;100.00
30554;BME280;17335;50.720;7.452;2023-11-22T00:57:24;100204.25;;;4.41;100.00
30554;BME280;17335;50.720;7.452;2023-11-22T00:59:53;100208.81;;;4.39;100.00
30554;BME280;17335;50.720;7.452;2023-11-22T01:02:20;100202.81;;;4.35;100.00
30554;BME280;17335;50.720;7.452;2023-11-22T01:04:47;100210.69;;;4.37;100.00
30554;BME280;17335;50.720;7.452;2023-11-22T01:07:13;100213.44;;;4.35;100.00
30554;BME280;17335;50.720;7.452;2023-11-22T01:09:39;100218.31;;;4.27;100.00
30554;BME280;17335;50.720;7.452;2023-11-22T01:12:06;100205.78;;;4.29;100.00
30554;BME280;17335;50.720;7.452;2023-11-22T01:14:35;100215.28;;;4.17;100.00
30554;BME280;17335;50.720;7.452;2023-11-22T01:17:01;100230.13;;;4.21;100.00
30554;BME280;17335;50.720;7.452;2023-11-22T01:19:28;100228.16;;;4.25;100.00
30554;BME280;17335;50.720;7.452;2023-11-22T01:21:54;100231.59;;;4.27;100.00
30554;BME280;17335;50.720;7.452;2023-11-22T01:24:21;100230.81;;;4.25;100.00
30554;BME280;17335;50.720;7.452;2023-11-22T01:26:47;100230.97;;;4.22;100.00
30554;BME280;17335;50.720;7.452;2023-11-22T01:29:14;100227.28;;;4.24;100.00
30554;BME280;17335;50.720;7.452;2023-11-22T01:31:40;100230.75;;;4.26;100.00
30554;BME280;17335;50.720;7.452;2023-11-22T01:34:08;100242.06;;;4.30;100.00
30554;BME280;17335;50.720;7.452;2023-11-22T01:36:41;100239.41;;;4.30;100.00
30554;BME280;17335;50.720;7.452;2023-11-22T01:39:08;100238.25;;;4.18;100.00
30554;BME280;17335;50.720;7.452;2023-11-22T01:41:34;100240.03;;;4.18;100.00
30554;BME280;17335;50.720;7.452;2023-11-22T01:44:02;100228.78;;;4.12;100.00
30554;BME280;17335;50.720;7.452;2023-11-22T01:46:29;100227.72;;;4.17;100.00
30554;BME280;17335;50.720;7.452;2023-11-22T01:48:55;100233.72;;;4.20;100.00
30554;BME280;17335;50.720;7.452;2023-11-22T01:51:22;100234.56;;;4.21;100.00
30554;BME280;17335;50.720;7.452;2023-11-22T01:53:53;100237.06;;;4.24;100.00
30554;BME280;17335;50.720;7.452;2023-11-22T01:56:23;100232.53;;;4.26;100.00
30554;BME280;17335;50.720;7.452;2023-11-22T01:58:50;100235.53;;;4.20;100.00
30554;BME280;17335;50.720;7.452;2023-11-22T02:01:17;100248.81;;;4.20;100.00
30554;BME280;17335;50.720;7.452;2023-11-22T02:03:45;100252.25;;;4.22;100.00
30554;BME280;17335;50.720;7.452;2023-11-22T02:06:12;100258.84;;;4.15;100.00
30554;BME280;17335;50.720;7.452;2023-11-22T02:08:38;100264.06;;;4.16;100.00
30554;BME280;17335;50.720;7.452;2023-11-22T02:11:05;100269.28;;;4.18;100.00
30554;BME280;17335;50.720;7.452;2023-11-22T02:13:32;100260.53;;;4.16;100.00
30554;BME280;17335;50.720;7.452;2023-11-22T02:15:58;100263.03;;;4.19;100.00
30554;BME280;17335;50.720;7.452;2023-11-22T02:18:27;100256.78;;;4.20;100.00
30554;BME280;17335;50.720;7.452;2023-11-22T02:20:55;100256.88;;;4.18;100.00
30554;BME280;17335;50.720;7.452;2023-11-22T02:23:21;100259.59;;;4.17;100.00
30554;BME280;17335;50.720;7.452;2023-11-22T02:25:48;100266.00;;;4.12;100.00
30554;BME280;17335;50.720;7.452;2023-11-22T02:28:14;100264.16;;;4.15;100.00
30554;BME280;17335;50.720;7.452;2023-11-22T02:30:41;100275.56;;;4.17;100.00
30554;BME280;17335;50.720;7.452;2023-11-22T02:33:08;100276.31;;;4.19;100.00
30554;BME280;17335;50.720;7.452;2023-11-22T02:35:35;100279.91;;;4.18;100.00
30554;BME280;17335;50.720;7.452;2023-11-22T02:38:01;100279.81;;;4.19;100.00
30554;BME280;17335;50.720;7.452;2023-11-22T02:40:28;100286.50;;;4.10;100.00
30554;BME280;17335;50.720;7.452;2023-11-22T02:42:55;100288.59;;;4.04;100.00
30554;BME280;17335;50.720;7.452;2023-11-22T02:45:28;100280.97;;;3.98;100.00
30554;BME280;17335;50.720;7.452;2023-11-22T02:47:55;100290.91;;;3.94;100.00
30554;BME280;17335;50.720;7.452;2023-11-22T02:50:22;100290.81;;;3.96;100.00
30554;BME280;17335;50.720;7.452;2023-11-22T02:52:48;100296.13;;;3.96;100.00
30554;BME280;17335;50.720;7.452;2023-11-22T02:55:15;100298.53;;;4.00;100.00
30554;BME280;17335;50.720;7.452;2023-11-22T02:57:42;100301.97;;;4.02;100.00
30554;BME280;17335;50.720;7.452;2023-11-22T03:00:09;100297.84;;;3.97;100.00
30554;BME280;17335;50.720;7.452;2023-11-22T03:02:39;100300.88;;;4.06;100.00
30554;BME280;17335;50.720;7.452;2023-11-22T03:05:08;100302.59;;;4.07;100.00
30554;BME280;17335;50.720;7.452;2023-11-22T03:07:38;100309.94;;;4.02;100.00
30554;BME280;17335;50.720;7.452;2023-11-22T03:10:05;100305.88;;;3.95;100.00
30554;BME280;17335;50.720;7.452;2023-11-22T03:12:34;100303.16;;;3.97;100.00
30554;BME280;17335;50.720;7.452;2023-11-22T03:15:01;100306.50;;;4.00;100.00
30554;BME280;17335;50.720;7.452;2023-11-22T03:17:29;100309.78;;;4.05;100.00
30554;BME280;17335;50.720;7.452;2023-11-22T03:19:57;100315.44;;;3.99;100.00
30554;BME280;17335;50.720;7.452;2023-11-22T03:22:27;100313.63;;;4.00;100.00
30554;BME280;17335;50.720;7.452;2023-11-22T03:24:56;100305.25;;;4.07;100.00
30554;BME280;17335;50.720;7.452;2023-11-22T03:27:24;100296.28;;;3.92;100.00
30554;BME280;17335;50.720;7.452;2023-11-22T03:29:51;100294.63;;;3.90;100.00
30554;BME280;17335;50.720;7.452;2023-11-22T03:32:18;100301.44;;;3.96;100.00
30554;BME280;17335;50.720;7.452;2023-11-22T03:34:44;100300.44;;;3.81;100.00
30554;BME280;17335;50.720;7.452;2023-11-22T03:37:11;100307.28;;;3.85;100.00
30554;BME280;17335;50.720;7.452;2023-11-22T03:39:37;100314.56;;;3.81;100.00
30554;BME280;17335;50.720;7.452;2023-11-22T03:42:04;100318.47;;;3.74;100.00
30554;BME280;17335;50.720;7.452;2023-11-22T03:44:31;100321.06;;;3.75;100.00
30554;BME280;17335;50.720;7.452;2023-11-22T03:46:57;100332.44;;;3.78;100.00
30554;BME280;17335;50.720;7.452;2023-11-22T03:49:24;100327.22;;;3.76;100.00
30554;BME280;17335;50.720;7.452;2023-11-22T03:51:50;100336.91;;;3.77;100.00
30554;BME280;17335;50.720;7.452;2023-11-22T03:54:17;100337.63;;;3.81;100.00
30554;BME280;17335;50.720;7.452;2023-11-22T03:56:43;100333.06;;;3.83;100.00
30554;BME280;17335;50.720;7.452;2023-11-22T03:59:10;100342.06;;;3.80;100.00
30554;BME280;17335;50.720;7.452;2023-11-22T04:01:38;100345.44;;;3.84;100.00
30554;BME280;17335;50.720;7.452;2023-11-22T04:04:04;100341.59;;;3.89;100.00
30554;BME280;17335;50.720;7.452;2023-11-22T04:06:31;100346.13;;;3.87;100.00
30554;BME280;17335;50.720;7.452;2023-11-22T04:08:59;100350.91;;;3.98;100.00
30554;BME280;17335;50.720;7.452;2023-11-22T04:11:26;100357.59;;;3.88;100.00
30554;BME280;17335;50.720;7.452;2023-11-22T04:13:55;100349.91;;;4.01;100.00
30554;BME280;17335;50.720;7.452;2023-11-22T04:16:22;100349.16;;;3.80;100.00
30554;BME280;17335;50.720;7.452;2023-11-22T04:18:48;100354.66;;;3.77;100.00
30554;BME280;17335;50.720;7.452;2023-11-22T04:21:15;100370.13;;;3.86;100.00
30554;BME280;17335;50.720;7.452;2023-11-22T04:23:42;100367.16;;;3.92;100.00
30554;BME280;17335;50.720;7.452;2023-11-22T04:26:08;100381.34;;;3.73;100.00
30554;BME280;17335;50.720;7.452;2023-11-22T04:28:35;100389.97;;;3.79;100.00
30554;BME280;17335;50.720;7.452;2023-11-22T04:31:02;100402.03;;;3.67;100.00
30554;BME280;17335;50.720;7.452;2023-11-22T04:33:28;100396.94;;;3.62;100.00
30554;BME280;17335;50.720;7.452;2023-11-22T04:35:55;100403.00;;;3.47;100.00
30554;BME280;17335;50.720;7.452;2023-11-22T04:38:22;100402.50;;;3.38;100.00
30554;BME280;17335;50.720;7.452;2023-11-22T04:40:48;100412.00;;;3.25;100.00
30554;BME280;17335;50.720;7.452;2023-11-22T04:43:15;100403.50;;;3.17;100.00
30554;BME280;17335;50.720;7.452;2023-11-22T04:45:41;100414.19;;;2.96;100.00
30554;BME280;17335;50.720;7.452;2023-11-22T04:48:08;100413.66;;;2.88;100.00
30554;BME280;17335;50.720;7.452;2023-11-22T04:50:35;100416.38;;;2.87;100.00
30554;BME280;17335;50.720;7.452;2023-11-22T04:53:02;100418.19;;;2.86;100.00
30554;BME280;17335;50.720;7.452;2023-11-22T04:55:29;100424.41;;;2.85;100.00
30554;BME280;17335;50.720;7.452;2023-11-22T04:57:55;100416.38;;;2.87;100.00
30554;BME280;17335;50.720;7.452;2023-11-22T05:00:22;100411.03;;;2.68;100.00
30554;BME280;17335;50.720;7.452;2023-11-22T05:02:51;100406.94;;;2.60;100.00
30554;BME280;17335;50.720;7.452;2023-11-22T05:05:18;100410.88;;;2.52;100.00
30554;BME280;17335;50.720;7.452;2023-11-22T05:07:44;100417.44;;;2.43;100.00
30554;BME280;17335;50.720;7.452;2023-11-22T05:10:11;100409.00;;;2.33;100.00
30554;BME280;17335;50.720;7.452;2023-11-22T05:12:38;100416.13;;;2.33;100.00
30554;BME280;17335;50.720;7.452;2023-11-22T05:15:06;100410.16;;;2.28;100.00
30554;BME280;17335;50.720;7.452;2023-11-22T05:17:33;100410.28;;;2.24;100.00
30554;BME280;17335;50.720;7.452;2023-11-22T05:20:00;100412.38;;;2.16;100.00
30554;BME280;17335;50.720;7.452;2023-11-22T05:22:27;100416.41;;;2.04;100.00
30554;BME280;17335;50.720;7.452;2023-11-22T05:24:53;100423.63;;;2.01;100.00
30554;BME280;17335;50.720;7.452;2023-11-22T05:27:20;100417.66;;;1.96;100.00
30554;BME280;17335;50.720;7.452;2023-11-22T05:29:46;100424.94;;;1.91;100.00
30554;BME280;17335;50.720;7.452;2023-11-22T05:32:20;100431.28;;;1.86;100.00
30554;BME280;17335;50.720;7.452;2023-11-22T05:34:47;100437.75;;;1.79;100.00
30554;BME280;17335;50.720;7.452;2023-11-22T05:37:14;100448.84;;;1.67;100.00
30554;BME280;17335;50.720;7.452;2023-11-22T05:39:40;100450.28;;;1.52;100.00
30554;BME280;17335;50.720;7.452;2023-11-22T05:42:07;100458.41;;;1.47;100.00
30554;BME280;17335;50.720;7.452;2023-11-22T05:44:33;100466.53;;;1.43;100.00
30554;BME280;17335;50.720;7.452;2023-11-22T05:47:00;100475.59;;;1.36;100.00
30554;BME280;17335;50.720;7.452;2023-11-22T05:49:26;100478.41;;;1.33;100.00
30554;BME280;17335;50.720;7.452;2023-11-22T05:51:53;100476.97;;;1.24;100.00
30554;BME280;17335;50.720;7.452;2023-11-22T05:54:19;100483.22;;;1.21;100.00
30554;BME280;17335;50.720;7.452;2023-11-22T05:56:46;100488.66;;;1.17;100.00
30554;BME280;17335;50.720;7.452;2023-11-22T05:59:12;100489.94;;;1.06;100.00
30554;BME280;17335;50.720;7.452;2023-11-22T06:01:39;100491.13;;;0.98;100.00
30554;BME280;17335;50.720;7.452;2023-11-22T06:04:06;100486.94;;;0.92;100.00
30554;BME280;17335;50.720;7.452;2023-11-22T06:06:36;100500.25;;;0.89;100.00
30554;BME280;17335;50.720;7.452;2023-11-22T06:09:03;100501.41;;;0.82;100.00
30554;BME280;17335;50.720;7.452;2023-11-22T06:11:31;100504.13;;;0.79;100.00
30554;BME280;17335;50.720;7.452;2023-11-22T06:13:58;100502.63;;;0.71;100.00
30554;BME280;17335;50.720;7.452;2023-11-22T06:16:24;100506.63;;;0.58;100.00
30554;BME280;17335;50.720;7.452;2023-11-22T06:18:51;100498.91;;;0.52;100.00
30554;BME280;17335;50.720;7.452;2023-11-22T06:21:18;100497.28;;;0.48;100.00
30554;BME280;17335;50.720;7.452;2023-11-22T06:23:45;100497.38;;;0.45;100.00
30554;BME280;17335;50.720;7.452;2023-11-22T06:26:12;100491.00;;;0.25;100.00
30554;BME280;17335;50.720;7.452;2023-11-22T06:28:38;100492.75;;;0.26;100.00
30554;BME280;17335;50.720;7.452;2023-11-22T06:31:05;100491.75;;;0.29;100.00
30554;BME280;17335;50.720;7.452;2023-11-22T06:33:31;100484.75;;;0.28;100.00
30554;BME280;17335;50.720;7.452;2023-11-22T06:35:58;100492.75;;;0.26;100.00
30554;BME280;17335;50.720;7.452;2023-11-22T06:38:24;100492.06;;;0.20;100.00
30554;BME280;17335;50.720;7.452;2023-11-22T06:40:51;100493.25;;;0.11;100.00
30554;BME280;17335;50.720;7.452;2023-11-22T06:43:17;100495.06;;;0.09;100.00
30554;BME280;17335;50.720;7.452;2023-11-22T06:45:44;100503.91;;;0.08;100.00
30554;BME280;17335;50.720;7.452;2023-11-22T06:48:11;100497.03;;;0.02;100.00
30554;BME280;17335;50.720;7.452;2023-11-22T06:50:38;100506.13;;;-0.07;100.00
30554;BME280;17335;50.720;7.452;2023-11-22T06:53:04;100502.75;;;-0.12;100.00
30554;BME280;17335;50.720;7.452;2023-11-22T06:55:31;100509.13;;;-0.19;100.00
30554;BME280;17335;50.720;7.452;2023-11-22T06:57:59;100523.34;;;-0.23;100.00
30554;BME280;17335;50.720;7.452;2023-11-22T07:00:25;100519.94;;;-0.27;100.00
30554;BME280;17335;50.720;7.452;2023-11-22T07:02:53;100527.88;;;-0.28;100.00
30554;BME280;17335;50.720;7.452;2023-11-22T07:05:20;100530.41;;;-0.24;100.00
30554;BME280;17335;50.720;7.452;2023-11-22T07:07:47;100516.31;;;-0.24;100.00
30554;BME280;17335;50.720;7.452;2023-11-22T07:10:15;100515.38;;;-0.22;100.00
30554;BME280;17335;50.720;7.452;2023-11-22T07:12:42;100500.47;;;-0.24;100.00
30554;BME280;17335;50.720;7.452;2023-11-22T07:15:10;100497.75;;;-0.21;100.00
30554;BME280;17335;50.720;7.452;2023-11-22T07:17:36;100495.84;;;-0.16;100.00
30554;BME280;17335;50.720;7.452;2023-11-22T07:20:03;100504.88;;;-0.23;100.00
30554;BME280;17335;50.720;7.452;2023-11-22T07:22:34;100501.69;;;-0.34;100.00
30554;BME280;17335;50.720;7.452;2023-11-22T07:25:01;100504.47;;;-0.39;100.00
30554;BME280;17335;50.720;7.452;2023-11-22T07:27:28;100508.09;;;-0.43;100.00
30554;BME280;17335;50.720;7.452;2023-11-22T07:29:55;100506.22;;;-0.40;100.00
30554;BME280;17335;50.720;7.452;2023-11-22T07:32:22;100506.81;;;-0.30;100.00
30554;BME280;17335;50.720;7.452;2023-11-22T07:34:49;100504.47;;;-0.39;100.00
30554;BME280;17335;50.720;7.452;2023-11-22T07:37:15;100515.22;;;-0.45;100.00
30554;BME280;17335;50.720;7.452;2023-11-22T07:39:44;100532.09;;;-0.51;100.00
30554;BME280;17335;50.720;7.452;2023-11-22T07:42:11;100530.19;;;-0.46;100.00
30554;BME280;17335;50.720;7.452;2023-11-22T07:44:37;100544.19;;;-0.44;100.00
30554;BME280;17335;50.720;7.452;2023-11-22T07:47:06;100539.63;;;-0.39;100.00
30554;BME280;17335;50.720;7.452;2023-11-22T07:49:38;100552.94;;;-0.43;100.00
30554;BME280;17335;50.720;7.452;2023-11-22T07:52:05;100560.88;;;-0.43;100.00
30554;BME280;17335;50.720;7.452;2023-11-22T07:54:33;100574.22;;;-0.48;100.00
30554;BME280;17335;50.720;7.452;2023-11-22T07:57:01;100580.34;;;-0.47;100.00
30554;BME280;17335;50.720;7.452;2023-11-22T07:59:28;100592.41;;;-0.39;100.00
30554;BME280;17335;50.720;7.452;2023-11-22T08:01:54;100597.56;;;-0.34;100.00
30554;BME280;17335;50.720;7.452;2023-11-22T08:04:21;100602.88;;;-0.35;100.00
30554;BME280;17335;50.720;7.452;2023-11-22T08:06:50;100612.50;;;-0.34;100.00
30554;BME280;17335;50.720;7.452;2023-11-22T08:09:18;100601.22;;;-0.40;100.00
30554;BME280;17335;50.720;7.452;2023-11-22T08:11:46;100613.50;;;-0.39;100.00
30554;BME280;17335;50.720;7.452;2023-11-22T08:14:12;100606.50;;;-0.40;100.00
30554;BME280;17335;50.720;7.452;2023-11-22T08:16:40;100601.06;;;-0.33;100.00
30554;BME280;17335;50.720;7.452;2023-11-22T08:19:09;100601.78;;;-0.28;100.00
30554;BME280;17335;50.720;7.452;2023-11-22T08:21:36;100585.88;;;-0.25;100.00
30554;BME280;17335;50.720;7.452;2023-11-22T08:24:02;100591.06;;;-0.22;100.00
30554;BME280;17335;50.720;7.452;2023-11-22T08:26:29;100578.66;;;-0.20;100.00
30554;BME280;17335;50.720;7.452;2023-11-22T08:28:55;100569.06;;;-0.23;100.00
30554;BME280;17335;50.720;7.452;2023-11-22T08:31:22;100567.06;;;-0.14;100.00
30554;BME280;17335;50.720;7.452;2023-11-22T08:33:48;100543.94;;;-0.06;100.00
30554;BME280;17335;50.720;7.452;2023-11-22T08:36:15;100540.19;;;0.01;100.00
30554;BME280;17335;50.720;7.452;2023-11-22T08:38:42;100527.66;;;0.08;100.00
30554;BME280;17335;50.720;7.452;2023-11-22T08:41:10;100536.38;;;0.10;100.00
30554;BME280;17335;50.720;7.452;2023-11-22T08:43:40;100537.09;;;0.15;100.00
30554;BME280;17335;50.720;7.452;2023-11-22T08:46:08;100537.81;;;0.20;100.00
30554;BME280;17335;50.720;7.452;2023-11-22T08:48:40;100537.78;;;0.22;100.00
30554;BME280;17335;50.720;7.452;2023-11-22T08:51:08;100551.69;;;0.27;100.00
30554;BME280;17335;50.720;7.452;2023-11-22T08:53:36;100555.81;;;0.35;100.00
30554;BME280;17335;50.720;7.452;2023-11-22T08:56:05;100558.25;;;0.42;100.00
30554;BME280;17335;50.720;7.452;2023-11-22T08:58:32;100558.94;;;0.48;100.00
30554;BME280;17335;50.720;7.452;2023-11-22T09:01:03;100562.28;;;0.53;100.00
30554;BME280;17335;50.720;7.452;2023-11-22T09:03:30;100576.22;;;0.59;100.00
30554;BME280;17335;50.720;7.452;2023-11-22T09:05:56;100590.13;;;0.64;100.00
30554;BME280;17335;50.720;7.452;2023-11-22T09:08:23;100585.56;;;0.69;100.00
30554;BME280;17335;50.720;7.452;2023-11-22T09:10:53;100592.25;;;0.79;100.00
30554;BME280;17335;50.720;7.452;2023-11-22T09:13:21;100604.22;;;0.89;100.00
30554;BME280;17335;50.720;7.452;2023-11-22T09:15:49;100618.72;;;1.04;100.00
30554;BME280;17335;50.720;7.452;2023-11-22T09:18:16;100631.63;;;1.14;100.00
30554;BME280;17335;50.720;7.452;2023-11-22T09:20:42;100620.28;;;1.35;100.00
30554;BME280;17335;50.720;7.452;2023-11-22T09:23:12;100608.94;;;1.57;100.00
30554;BME280;17335;50.720;7.452;2023-11-22T09:25:40;100605.81;;;1.69;100.00
30554;BME280;17335;50.720;7.452;2023-11-22T09:28:07;100616.34;;;1.71;100.00
30554;BME280;17335;50.720;7.452;2023-11-22T09:30:35;100624.47;;;1.90;100.00
30554;BME280;17335;50.720;7.452;2023-11-22T09:33:05;100620.81;;;2.16;100.00
30554;BME280;17335;50.720;7.452;2023-11-22T09:35:33;100610.00;;;2.22;100.00
30554;BME280;17335;50.720;7.452;2023-11-22T09:38:01;100597.91;;;2.37;100.00
30554;BME280;17335;50.720;7.452;2023-11-22T09:40:28;100580.34;;;2.34;100.00
30554;BME280;17335;50.720;7.452;2023-11-22T09:42:56;100577.69;;;2.34;100.00
30554;BME280;17335;50.720;7.452;2023-11-22T09:45:24;100575.59;;;2.42;100.00
30554;BME280;17335;50.720;7.452;2023-11-22T09:47:52;100591.25;;;2.49;100.00
30554;BME280;17335;50.720;7.452;2023-11-22T09:50:28;100588.28;;;2.56;100.00
30554;BME280;17335;50.720;7.452;2023-11-22T09:53:00;100576.44;;;2.65;100.00
30554;BME280;17335;50.720;7.452;2023-11-22T09:55:28;100577.84;;;2.74;100.00
30554;BME280;17335;50.720;7.452;2023-11-22T09:57:58;100574.66;;;2.86;100.00
30554;BME280;17335;50.720;7.452;2023-11-22T10:00:28;100572.94;;;2.85;100.00
30554;BME280;17335;50.720;7.452;2023-11-22T10:02:57;100562.72;;;2.96;100.00
30554;BME280;17335;50.720;7.452;2023-11-22T10:05:24;100547.34;;;3.05;100.00
30554;BME280;17335;50.720;7.452;2023-11-22T10:07:51;100544.09;;;2.98;100.00
30554;BME280;17335;50.720;7.452;2023-11-22T10:10:19;100547.34;;;3.05;100.00
30554;BME280;17335;50.720;7.452;2023-11-22T10:12:48;100567.50;;;3.09;100.00
30554;BME280;17335;50.720;7.452;2023-11-22T10:15:16;100571.34;;;3.22;100.00
30554;BME280;17335;50.720;7.452;2023-11-22T10:17:57;100570.16;;;3.09;100.00
30554;BME280;17335;50.720;7.452;2023-11-22T10:20:25;100558.41;;;3.14;100.00
30554;BME280;17335;50.720;7.452;2023-11-22T10:22:54;100572.50;;;3.16;100.00
30554;BME280;17335;50.720;7.452;2023-11-22T10:25:21;100566.50;;;3.32;100.00
30554;BME280;17335;50.720;7.452;2023-11-22T10:27:49;100551.44;;;3.32;100.00
30554;BME280;17335;50.720;7.452;2023-11-22T10:30:18;100549.56;;;3.34;100.00
30554;BME280;17335;50.720;7.452;2023-11-22T10:32:45;100543.53;;;3.31;100.00
30554;BME280;17335;50.720;7.452;2023-11-22T10:35:12;100543.28;;;3.37;100.00
30554;BME280;17335;50.720;7.452;2023-11-22T10:37:42;100541.41;;;3.39;100.00
30554;BME280;17335;50.720;7.452;2023-11-22T10:40:12;100544.47;;;3.49;100.00
30554;BME280;17335;50.720;7.452;2023-11-22T10:42:42;100535.97;;;3.61;100.00
30554;BME280;17335;50.720;7.452;2023-11-22T10:45:12;100539.56;;;3.60;100.00
30554;BME280;17335;50.720;7.452;2023-11-22T10:47:40;100542.84;;;3.65;100.00
30554;BME280;17335;50.720;7.452;2023-11-22T10:50:09;100543.28;;;3.56;100.00
30554;BME280;17335;50.720;7.452;2023-11-22T10:52:40;100532.44;;;3.61;100.00
30554;BME280;17335;50.720;7.452;2023-11-22T10:55:11;100527.34;;;3.56;100.00
30554;BME280;17335;50.720;7.452;2023-11-22T10:57:48;100529.50;;;3.48;100.00
30554;BME280;17335;50.720;7.452;2023-11-22T11:00:21;100530.16;;;3.53;100.00
30554;BME280;17335;50.720;7.452;2023-11-22T11:03:03;100534.63;;;3.71;100.00
30554;BME280;17335;50.720;7.452;2023-11-22T11:05:33;100541.44;;;3.77;100.00
30554;BME280;17335;50.720;7.452;2023-11-22T11:08:07;100543.69;;;3.85;100.00
30554;BME280;17335;50.720;7.452;2023-11-22T11:10:40;100546.66;;;3.79;100.00
30554;BME280;17335;50.720;7.452;2023-11-22T11:13:10;100543.69;;;3.85;100.00
30554;BME280;17335;50.720;7.452;2023-11-22T11:15:38;100550.31;;;3.95;100.00
30554;BME280;17335;50.720;7.452;2023-11-22T11:18:06;100549.00;;;4.04;100.00
30554;BME280;17335;50.720;7.452;2023-11-22T11:20:56;100547.41;;;4.19;100.00
30554;BME280;17335;50.720;7.452;2023-11-22T11:23:25;100548.16;;;4.03;100.00
30554;BME280;17335;50.720;7.452;2023-11-22T11:25:54;100550.63;;;3.89;100.00
30554;BME280;17335;50.720;7.452;2023-11-22T11:28:22;100545.78;;;3.97;100.00
30554;BME280;17335;50.720;7.452;2023-11-22T11:30:51;100555.03;;;3.88;100.00
30554;BME280;17335;50.720;7.452;2023-11-22T11:33:27;100561.31;;;4.06;100.00
30554;BME280;17335;50.720;7.452;2023-11-22T11:35:56;100555.47;;;3.98;100.00
30554;BME280;17335;50.720;7.452;2023-11-22T11:38:30;100542.97;;;4.00;100.00
30554;BME280;17335;50.720;7.452;2023-11-22T11:41:10;100548.94;;;4.05;100.00
30554;BME280;17335;50.720;7.452;2023-11-22T11:43:47;100550.88;;;4.02;100.00
30554;BME280;17335;50.720;7.452;2023-11-22T11:46:15;100539.09;;;4.07;100.00
30554;BME280;17335;50.720;7.452;2023-11-22T11:48:43;100554.09;;;4.08;100.00
30554;BME280;17335;50.720;7.452;2023-11-22T11:51:14;100547.56;;;4.16;100.00
30554;BME280;17335;50.720;7.452;2023-11-22T11:53:42;100527.47;;;4.10;100.00
30554;BME280;17335;50.720;7.452;2023-11-22T11:56:09;100524.28;;;4.21;100.00
30554;BME280;17335;50.720;7.452;2023-11-22T11:58:36;100532.75;;;4.29;100.00
30554;BME280;17335;50.720;7.452;2023-11-22T12:01:07;100524.53;;;4.34;100.00
30554;BME280;17335;50.720;7.452;2023-11-22T12:03:35;100518.53;;;4.30;100.00
30554;BME280;17335;50.720;7.452;2023-11-22T12:06:02;100518.59;;;4.28;100.00
30554;BME280;17335;50.720;7.452;2023-11-22T12:08:29;100524.28;;;4.38;100.00
30554;BME280;17335;50.720;7.452;2023-11-22T12:10:56;100521.31;;;4.27;100.00
30554;BME280;17335;50.720;7.452;2023-11-22T12:13:25;100528.06;;;4.34;100.00
30554;BME280;17335;50.720;7.452;2023-11-22T12:15:52;100530.41;;;4.40;100.00
30554;BME280;17335;50.720;7.452;2023-11-22T12:18:20;100524.34;;;4.56;100.00
30554;BME280;17335;50.720;7.452;2023-11-22T12:20:57;100526.91;;;4.57;100.00
30554;BME280;17335;50.720;7.452;2023-11-22T12:23:25;100514.56;;;4.56;100.00
30554;BME280;17335;50.720;7.452;2023-11-22T12:25:55;100507.56;;;4.54;100.00
30554;BME280;17335;50.720;7.452;2023-11-22T12:28:23;100504.47;;;4.63;100.00
30554;BME280;17335;50.720;7.452;2023-11-22T12:30:52;100495.38;;;4.67;100.00
30554;BME280;17335;50.720;7.452;2023-11-22T12:33:18;100487.31;;;4.68;100.00
30554;BME280;17335;50.720;7.452;2023-11-22T12:35:46;100485.66;;;4.48;100.00
30554;BME280;17335;50.720;7.452;2023-11-22T12:38:13;100484.34;;;4.40;100.00
30554;BME280;17335;50.720;7.452;2023-11-22T12:40:44;100473.06;;;4.35;100.00
30554;BME280;17335;50.720;7.452;2023-11-22T12:43:13;100461.03;;;4.27;100.00
30554;BME280;17335;50.720;7.452;2023-11-22T12:45:42;100437.34;;;4.23;100.00
30554;BME280;17335;50.720;7.452;2023-11-22T12:48:22;100414.16;;;4.26;100.00
30554;BME280;17335;50.720;7.452;2023-11-22T12:50:52;100413.25;;;4.43;100.00